sensor_id;sensor_type;location;lat;lon;timestamp;temperature;humidity
66740;DHT22;53653;52.188;8.602;2023-02-28T00:00:34;-0.41;82.15
66740;DHT22;53653;52.188;8.602;2023-02-28T00:03:01;-0.45;82.05
66740;DHT22;53653;52.188;8.602;2023-02-28T00:05:27;-0.61;83.82
66740;DHT22;53653;52.188;8.602;2023-02-28T00:07:54;-0.79;84.42
66740;DHT22;53653;52.188;8.602;2023-02-28T00:10:29;-0.90;84.83
66740;DHT22;53653;52.188;8.602;2023-02-28T00:12:59;-1.00;85.42
66740;DHT22;53653;52.188;8.602;2023-02-28T00:15:25;-1.01;84.64
66740;DHT22;53653;52.188;8.602;2023-02-28T00:17:51;-0.93;83.98
66740;DHT22;53653;52.188;8.602;2023-02-28T00:20:20;-0.84;83.61
66740;DHT22;53653;52.188;8.602;2023-02-28T00:22:48;-0.79;83.21
66740;DHT22;53653;52.188;8.602;2023-02-28T00:25:18;-0.75;83.05
66740;DHT22;53653;52.188;8.602;2023-02-28T00:27:44;-0.69;82.58
66740;DHT22;53653;52.188;8.602;2023-02-28T00:30:13;-0.72;82.64
66740;DHT22;53653;52.188;8.602;2023-02-28T00:32:40;-0.75;82.58
66740;DHT22;53653;52.188;8.602;2023-02-28T00:35:06;-0.82;82.74
66740;DHT22;53653;52.188;8.602;2023-02-28T00:37:32;-1.05;84.52
66740;DHT22;53653;52.188;8.602;2023-02-28T00:39:58;-1.30;85.24
66740;DHT22;53653;52.188;8.602;2023-02-28T00:42:24;-1.41;85.80
66740;DHT22;53653;52.188;8.602;2023-02-28T00:44:50;-1.45;86.13
66740;DHT22;53653;52.188;8.602;2023-02-28T00:47:15;-1.42;85.71
66740;DHT22;53653;52.188;8.602;2023-02-28T00:49:42;-1.38;85.30
66740;DHT22;53653;52.188;8.602;2023-02-28T00:52:08;-1.34;85.52
66740;DHT22;53653;52.188;8.602;2023-02-28T00:54:34;-1.42;85.94
66740;DHT22;53653;52.188;8.602;2023-02-28T00:56:59;-1.51;86.31
66740;DHT22;53653;52.188;8.602;2023-02-28T00:59:25;-1.59;87.01
66740;DHT22;53653;52.188;8.602;2023-02-28T01:01:51;-1.69;87.61
66740;DHT22;53653;52.188;8.602;2023-02-28T01:04:17;-1.68;87.43
66740;DHT22;53653;52.188;8.602;2023-02-28T01:06:42;-1.63;87.00
66740;DHT22;53653;52.188;8.602;2023-02-28T01:09:09;-1.61;86.63
66740;DHT22;53653;52.188;8.602;2023-02-28T01:11:35;-1.50;86.05
66740;DHT22;53653;52.188;8.602;2023-02-28T01:14:02;-1.47;85.87
66740;DHT22;53653;52.188;8.602;2023-02-28T01:16:27;-1.44;85.49
66740;DHT22;53653;52.188;8.602;2023-02-28T01:18:53;-1.37;85.65
66740;DHT22;53653;52.188;8.602;2023-02-28T01:21:20;-1.27;84.77
66740;DHT22;53653;52.188;8.602;2023-02-28T01:23:47;-1.25;84.14
66740;DHT22;53653;52.188;8.602;2023-02-28T01:26:21;-1.21;83.57
66740;DHT22;53653;52.188;8.602;2023-02-28T01:28:48;-1.18;83.21
66740;DHT22;53653;52.188;8.602;2023-02-28T01:31:14;-1.18;83.24
66740;DHT22;53653;52.188;8.602;2023-02-28T01:33:40;-1.20;83.60
66740;DHT22;53653;52.188;8.602;2023-02-28T01:36:16;-1.15;83.47
66740;DHT22;53653;52.188;8.602;2023-02-28T01:38:42;-1.07;83.31
66740;DHT22;53653;52.188;8.602;2023-02-28T01:41:23;-1.05;83.23
66740;DHT22;53653;52.188;8.602;2023-02-28T01:46:15;-1.07;83.66
66740;DHT22;53653;52.188;8.602;2023-02-28T01:51:20;-1.05;83.76
66740;DHT22;53653;52.188;8.602;2023-02-28T01:53:51;-1.05;83.76
66740;DHT22;53653;52.188;8.602;2023-02-28T01:56:21;-1.03;83.69
66740;DHT22;53653;52.188;8.602;2023-02-28T01:58:50;-1.05;83.62
66740;DHT22;53653;52.188;8.602;2023-02-28T02:01:18;-1.03;83.74
66740;DHT22;53653;52.188;8.602;2023-02-28T02:03:53;-1.00;83.65
66740;DHT22;53653;52.188;8.602;2023-02-28T02:06:26;-1.00;83.67
66740;DHT22;53653;52.188;8.602;2023-02-28T02:08:53;-1.01;83.72
66740;DHT22;53653;52.188;8.602;2023-02-28T02:11:20;-1.05;83.89
66740;DHT22;53653;52.188;8.602;2023-02-28T02:17:34;-1.23;84.06
66740;DHT22;53653;52.188;8.602;2023-02-28T02:34:17;-1.44;85.82
66740;DHT22;53653;52.188;8.602;2023-02-28T02:36:58;-1.44;85.51
66740;DHT22;53653;52.188;8.602;2023-02-28T02:39:31;-1.44;85.44
66740;DHT22;53653;52.188;8.602;2023-02-28T02:42:04;-1.37;85.52
66740;DHT22;53653;52.188;8.602;2023-02-28T02:44:45;-1.37;85.33
66740;DHT22;53653;52.188;8.602;2023-02-28T02:47:15;-1.30;85.39
66740;DHT22;53653;52.188;8.602;2023-02-28T02:49:48;-1.25;85.18
66740;DHT22;53653;52.188;8.602;2023-02-28T02:52:17;-1.21;84.90
66740;DHT22;53653;52.188;8.602;2023-02-28T02:54:45;-1.17;84.71
66740;DHT22;53653;52.188;8.602;2023-02-28T02:57:20;-1.18;84.49
66740;DHT22;53653;52.188;8.602;2023-02-28T02:59:47;-1.15;84.46
66740;DHT22;53653;52.188;8.602;2023-02-28T03:02:16;-1.15;84.50
66740;DHT22;53653;52.188;8.602;2023-02-28T03:04:46;-1.18;84.28
66740;DHT22;53653;52.188;8.602;2023-02-28T03:07:13;-1.23;84.17
66740;DHT22;53653;52.188;8.602;2023-02-28T03:09:40;-1.31;84.85
66740;DHT22;53653;52.188;8.602;2023-02-28T03:12:09;-1.42;85.03
66740;DHT22;53653;52.188;8.602;2023-02-28T03:14:56;-1.41;84.90
66740;DHT22;53653;52.188;8.602;2023-02-28T03:20:30;-1.51;85.00
66740;DHT22;53653;52.188;8.602;2023-02-28T03:23:19;-1.56;85.07
66740;DHT22;53653;52.188;8.602;2023-02-28T03:28:36;-1.66;85.32
66740;DHT22;53653;52.188;8.602;2023-02-28T03:31:13;-1.75;85.68
66740;DHT22;53653;52.188;8.602;2023-02-28T03:33:52;-1.85;86.32
66740;DHT22;53653;52.188;8.602;2023-02-28T03:36:24;-1.87;86.09
66740;DHT22;53653;52.188;8.602;2023-02-28T03:41:46;-1.89;85.93
66740;DHT22;53653;52.188;8.602;2023-02-28T03:44:22;-1.89;85.83
66740;DHT22;53653;52.188;8.602;2023-02-28T03:47:23;-1.90;85.75
66740;DHT22;53653;52.188;8.602;2023-02-28T03:50:01;-1.96;85.85
66740;DHT22;53653;52.188;8.602;2023-02-28T03:52:33;-1.99;85.87
66740;DHT22;53653;52.188;8.602;2023-02-28T03:55:03;-2.00;85.78
66740;DHT22;53653;52.188;8.602;2023-02-28T03:57:41;-2.03;85.69
66740;DHT22;53653;52.188;8.602;2023-02-28T04:00:17;-2.07;85.65
66740;DHT22;53653;52.188;8.602;2023-02-28T04:02:44;-2.09;85.71
66740;DHT22;53653;52.188;8.602;2023-02-28T04:05:10;-2.13;85.68
66740;DHT22;53653;52.188;8.602;2023-02-28T04:07:37;-2.14;85.77
66740;DHT22;53653;52.188;8.602;2023-02-28T04:10:03;-2.14;85.92
66740;DHT22;53653;52.188;8.602;2023-02-28T04:12:29;-2.15;86.02
66740;DHT22;53653;52.188;8.602;2023-02-28T04:14:55;-2.21;85.95
66740;DHT22;53653;52.188;8.602;2023-02-28T04:17:20;-2.26;85.97
66740;DHT22;53653;52.188;8.602;2023-02-28T04:19:45;-2.27;86.17
66740;DHT22;53653;52.188;8.602;2023-02-28T04:22:11;-2.31;86.13
66740;DHT22;53653;52.188;8.602;2023-02-28T04:24:36;-2.36;86.15
66740;DHT22;53653;52.188;8.602;2023-02-28T04:27:02;-2.36;86.41
66740;DHT22;53653;52.188;8.602;2023-02-28T04:29:31;-2.41;86.44
66740;DHT22;53653;52.188;8.602;2023-02-28T04:32:00;-2.44;86.43
66740;DHT22;53653;52.188;8.602;2023-02-28T04:34:28;-2.48;86.58
66740;DHT22;53653;52.188;8.602;2023-02-28T04:36:55;-2.51;86.71
66740;DHT22;53653;52.188;8.602;2023-02-28T04:39:22;-2.50;86.92
66740;DHT22;53653;52.188;8.602;2023-02-28T04:41:48;-2.54;87.01
66740;DHT22;53653;52.188;8.602;2023-02-28T04:44:13;-2.54;87.01
66740;DHT22;53653;52.188;8.602;2023-02-28T04:46:40;-2.58;87.07
66740;DHT22;53653;52.188;8.602;2023-02-28T04:49:05;-2.58;87.23
66740;DHT22;53653;52.188;8.602;2023-02-28T04:51:31;-2.62;87.15
66740;DHT22;53653;52.188;8.602;2023-02-28T04:53:56;-2.65;87.12
66740;DHT22;53653;52.188;8.602;2023-02-28T04:56:22;-2.68;87.23
66740;DHT22;53653;52.188;8.602;2023-02-28T04:58:49;-2.72;87.38
66740;DHT22;53653;52.188;8.602;2023-02-28T05:03:48;-2.72;87.46
66740;DHT22;53653;52.188;8.602;2023-02-28T05:06:14;-2.71;87.69
66740;DHT22;53653;52.188;8.602;2023-02-28T05:08:40;-2.71;87.79
66740;DHT22;53653;52.188;8.602;2023-02-28T05:11:13;-2.71;87.70
66740;DHT22;53653;52.188;8.602;2023-02-28T05:13:38;-2.73;87.70
66740;DHT22;53653;52.188;8.602;2023-02-28T05:16:04;-2.75;87.52
66740;DHT22;53653;52.188;8.602;2023-02-28T05:18:30;-2.82;87.52
66740;DHT22;53653;52.188;8.602;2023-02-28T05:20:55;-2.80;88.10
66740;DHT22;53653;52.188;8.602;2023-02-28T05:23:22;-2.82;88.33
66740;DHT22;53653;52.188;8.602;2023-02-28T05:25:47;-2.82;88.02
66740;DHT22;53653;52.188;8.602;2023-02-28T05:28:13;-2.82;87.82
66740;DHT22;53653;52.188;8.602;2023-02-28T05:30:39;-2.86;87.39
66740;DHT22;53653;52.188;8.602;2023-02-28T05:33:05;-2.93;87.33
66740;DHT22;53653;52.188;8.602;2023-02-28T05:35:30;-2.95;87.40
66740;DHT22;53653;52.188;8.602;2023-02-28T05:37:55;-2.97;87.31
66740;DHT22;53653;52.188;8.602;2023-02-28T05:40:21;-2.96;87.30
66740;DHT22;53653;52.188;8.602;2023-02-28T05:42:46;-2.96;87.06
66740;DHT22;53653;52.188;8.602;2023-02-28T05:45:12;-2.95;86.94
66740;DHT22;53653;52.188;8.602;2023-02-28T05:47:38;-2.97;86.83
66740;DHT22;53653;52.188;8.602;2023-02-28T05:50:04;-2.99;86.69
66740;DHT22;53653;52.188;8.602;2023-02-28T05:52:30;-3.00;86.54
66740;DHT22;53653;52.188;8.602;2023-02-28T05:54:56;-3.04;86.54
66740;DHT22;53653;52.188;8.602;2023-02-28T05:57:22;-3.07;86.64
66740;DHT22;53653;52.188;8.602;2023-02-28T05:59:48;-3.09;86.64
66740;DHT22;53653;52.188;8.602;2023-02-28T06:02:16;-3.10;86.53
66740;DHT22;53653;52.188;8.602;2023-02-28T06:04:42;-3.14;86.68
66740;DHT22;53653;52.188;8.602;2023-02-28T06:07:08;-3.14;86.97
66740;DHT22;53653;52.188;8.602;2023-02-28T06:09:34;-3.17;87.21
66740;DHT22;53653;52.188;8.602;2023-02-28T06:12:02;-3.17;87.43
66740;DHT22;53653;52.188;8.602;2023-02-28T06:14:32;-3.17;87.57
66740;DHT22;53653;52.188;8.602;2023-02-28T06:16:58;-3.17;87.67
66740;DHT22;53653;52.188;8.602;2023-02-28T06:19:24;-3.23;87.71
66740;DHT22;53653;52.188;8.602;2023-02-28T06:21:53;-3.23;87.77
66740;DHT22;53653;52.188;8.602;2023-02-28T06:24:20;-3.20;87.95
66740;DHT22;53653;52.188;8.602;2023-02-28T06:26:46;-3.21;87.82
66740;DHT22;53653;52.188;8.602;2023-02-28T06:29:11;-3.19;87.85
66740;DHT22;53653;52.188;8.602;2023-02-28T06:31:37;-3.17;88.05
66740;DHT22;53653;52.188;8.602;2023-02-28T06:34:04;-3.14;87.73
66740;DHT22;53653;52.188;8.602;2023-02-28T06:36:30;-3.07;87.68
66740;DHT22;53653;52.188;8.602;2023-02-28T06:38:56;-2.90;87.61
66740;DHT22;53653;52.188;8.602;2023-02-28T06:41:26;-2.71;87.17
66740;DHT22;53653;52.188;8.602;2023-02-28T06:43:52;-2.55;86.30
66740;DHT22;53653;52.188;8.602;2023-02-28T06:46:18;-2.37;85.91
66740;DHT22;53653;52.188;8.602;2023-02-28T06:55:34;-1.44;83.07
66740;DHT22;53653;52.188;8.602;2023-02-28T06:57:59;-1.17;82.29
66740;DHT22;53653;52.188;8.602;2023-02-28T07:00:25;-0.97;81.28
66740;DHT22;53653;52.188;8.602;2023-02-28T07:02:50;-0.68;80.66
66740;DHT22;53653;52.188;8.602;2023-02-28T07:05:16;-0.41;79.80
66740;DHT22;53653;52.188;8.602;2023-02-28T07:07:42;-0.10;79.45
66740;DHT22;53653;52.188;8.602;2023-02-28T07:10:13;0.10;79.22
66740;DHT22;53653;52.188;8.602;2023-02-28T07:12:41;0.33;78.92
66740;DHT22;53653;52.188;8.602;2023-02-28T07:15:06;0.48;78.11
66740;DHT22;53653;52.188;8.602;2023-02-28T07:17:32;0.58;78.02
66740;DHT22;53653;52.188;8.602;2023-02-28T07:19:58;0.75;77.62
66740;DHT22;53653;52.188;8.602;2023-02-28T07:22:23;0.85;77.06
66740;DHT22;53653;52.188;8.602;2023-02-28T07:24:50;1.07;76.31
66740;DHT22;53653;52.188;8.602;2023-02-28T07:27:15;1.23;76.01
66740;DHT22;53653;52.188;8.602;2023-02-28T07:29:49;1.23;75.17
66740;DHT22;53653;52.188;8.602;2023-02-28T07:32:15;1.57;74.38
66740;DHT22;53653;52.188;8.602;2023-02-28T07:34:40;1.67;74.39
66740;DHT22;53653;52.188;8.602;2023-02-28T07:37:06;1.89;73.34
66740;DHT22;53653;52.188;8.602;2023-02-28T07:39:31;1.98;72.62
66740;DHT22;53653;52.188;8.602;2023-02-28T07:41:57;2.01;73.33
66740;DHT22;53653;52.188;8.602;2023-02-28T07:44:25;2.12;71.98
66740;DHT22;53653;52.188;8.602;2023-02-28T07:46:51;1.98;73.24
66740;DHT22;53653;52.188;8.602;2023-02-28T07:49:18;2.02;73.27
66740;DHT22;53653;52.188;8.602;2023-02-28T07:51:43;1.88;73.31
66740;DHT22;53653;52.188;8.602;2023-02-28T07:54:08;2.22;73.80
66740;DHT22;53653;52.188;8.602;2023-02-28T07:56:34;2.49;72.75
66740;DHT22;53653;52.188;8.602;2023-02-28T07:58:59;2.83;72.03
66740;DHT22;53653;52.188;8.602;2023-02-28T08:01:26;3.04;71.31
66740;DHT22;53653;52.188;8.602;2023-02-28T08:03:52;3.29;70.11
66740;DHT22;53653;52.188;8.602;2023-02-28T08:06:23;3.33;70.98
66740;DHT22;53653;52.188;8.602;2023-02-28T08:08:49;3.62;70.52
66740;DHT22;53653;52.188;8.602;2023-02-28T08:11:16;3.88;70.10
66740;DHT22;53653;52.188;8.602;2023-02-28T08:13:42;3.80;69.83
66740;DHT22;53653;52.188;8.602;2023-02-28T08:16:10;3.71;68.60
66740;DHT22;53653;52.188;8.602;2023-02-28T08:18:35;3.97;67.92
66740;DHT22;53653;52.188;8.602;2023-02-28T08:21:09;3.55;67.23
66740;DHT22;53653;52.188;8.602;2023-02-28T08:23:35;3.35;65.61
66740;DHT22;53653;52.188;8.602;2023-02-28T08:26:01;3.59;66.51
66740;DHT22;53653;52.188;8.602;2023-02-28T08:28:26;3.11;65.31
66740;DHT22;53653;52.188;8.602;2023-02-28T08:30:52;2.99;64.83
66740;DHT22;53653;52.188;8.602;2023-02-28T08:33:17;3.12;63.77
66740;DHT22;53653;52.188;8.602;2023-02-28T08:35:43;3.43;63.54
66740;DHT22;53653;52.188;8.602;2023-02-28T08:38:08;3.84;62.07
66740;DHT22;53653;52.188;8.602;2023-02-28T08:40:33;3.78;61.13
66740;DHT22;53653;52.188;8.602;2023-02-28T08:42:59;3.91;60.67
66740;DHT22;53653;52.188;8.602;2023-02-28T08:45:25;4.25;60.26
66740;DHT22;53653;52.188;8.602;2023-02-28T08:47:51;4.49;60.36
66740;DHT22;53653;52.188;8.602;2023-02-28T08:50:18;4.84;60.96
66740;DHT22;53653;52.188;8.602;2023-02-28T08:52:43;5.17;60.84
66740;DHT22;53653;52.188;8.602;2023-02-28T08:55:10;5.03;59.70
66740;DHT22;53653;52.188;8.602;2023-02-28T08:57:35;5.22;58.72
66740;DHT22;53653;52.188;8.602;2023-02-28T09:00:02;5.08;55.25
66740;DHT22;53653;52.188;8.602;2023-02-28T09:02:30;4.70;55.86
66740;DHT22;53653;52.188;8.602;2023-02-28T09:04:57;4.67;56.64
66740;DHT22;53653;52.188;8.602;2023-02-28T09:07:24;4.90;56.77
66740;DHT22;53653;52.188;8.602;2023-02-28T09:09:49;5.49;54.98
66740;DHT22;53653;52.188;8.602;2023-02-28T09:12:25;5.15;52.42
66740;DHT22;53653;52.188;8.602;2023-02-28T09:14:52;4.48;53.77
66740;DHT22;53653;52.188;8.602;2023-02-28T09:17:17;4.76;52.70
66740;DHT22;53653;52.188;8.602;2023-02-28T09:19:43;5.22;51.53
66740;DHT22;53653;52.188;8.602;2023-02-28T09:22:10;5.35;52.16
66740;DHT22;53653;52.188;8.602;2023-02-28T09:24:37;4.97;51.23
66740;DHT22;53653;52.188;8.602;2023-02-28T09:27:03;5.08;50.53
66740;DHT22;53653;52.188;8.602;2023-02-28T09:29:30;5.42;50.34
66740;DHT22;53653;52.188;8.602;2023-02-28T09:31:55;5.91;49.27
66740;DHT22;53653;52.188;8.602;2023-02-28T09:34:25;5.81;48.09
66740;DHT22;53653;52.188;8.602;2023-02-28T09:36:51;5.80;49.29
66740;DHT22;53653;52.188;8.602;2023-02-28T09:39:21;5.77;49.56
66740;DHT22;53653;52.188;8.602;2023-02-28T09:41:49;5.34;50.91
66740;DHT22;53653;52.188;8.602;2023-02-28T09:44:22;5.79;49.79
66740;DHT22;53653;52.188;8.602;2023-02-28T09:46:55;5.91;49.00
66740;DHT22;53653;52.188;8.602;2023-02-28T09:49:33;5.51;50.03
66740;DHT22;53653;52.188;8.602;2023-02-28T09:52:02;5.48;51.03
66740;DHT22;53653;52.188;8.602;2023-02-28T09:54:30;5.51;49.97
66740;DHT22;53653;52.188;8.602;2023-02-28T09:59:39;5.38;50.47
66740;DHT22;53653;52.188;8.602;2023-02-28T10:04:57;5.25;51.13
66740;DHT22;53653;52.188;8.602;2023-02-28T10:10:05;5.81;51.06
66740;DHT22;53653;52.188;8.602;2023-02-28T10:12:36;5.24;50.26
66740;DHT22;53653;52.188;8.602;2023-02-28T10:15:04;5.60;51.28
66740;DHT22;53653;52.188;8.602;2023-02-28T10:17:38;5.46;50.62
66740;DHT22;53653;52.188;8.602;2023-02-28T10:20:07;5.67;50.16
66740;DHT22;53653;52.188;8.602;2023-02-28T10:23:02;5.59;51.09
66740;DHT22;53653;52.188;8.602;2023-02-28T10:25:34;5.73;50.57
66740;DHT22;53653;52.188;8.602;2023-02-28T10:28:11;5.49;50.67
66740;DHT22;53653;52.188;8.602;2023-02-28T10:30:43;5.35;51.11
66740;DHT22;53653;52.188;8.602;2023-02-28T10:33:28;5.53;49.83
66740;DHT22;53653;52.188;8.602;2023-02-28T10:35:54;5.42;50.80
66740;DHT22;53653;52.188;8.602;2023-02-28T10:38:25;5.80;49.96
66740;DHT22;53653;52.188;8.602;2023-02-28T10:41:03;5.77;50.85
66740;DHT22;53653;52.188;8.602;2023-02-28T10:43:29;6.14;49.67
66740;DHT22;53653;52.188;8.602;2023-02-28T10:46:04;6.17;48.56
66740;DHT22;53653;52.188;8.602;2023-02-28T10:48:45;5.91;49.49
66740;DHT22;53653;52.188;8.602;2023-02-28T10:51:18;5.79;50.26
66740;DHT22;53653;52.188;8.602;2023-02-28T10:53:52;6.03;49.70
66740;DHT22;53653;52.188;8.602;2023-02-28T10:56:20;6.45;48.90
66740;DHT22;53653;52.188;8.602;2023-02-28T11:01:18;6.30;50.23
66740;DHT22;53653;52.188;8.602;2023-02-28T11:03:44;6.52;48.96
66740;DHT22;53653;52.188;8.602;2023-02-28T11:08:46;5.65;50.72
66740;DHT22;53653;52.188;8.602;2023-02-28T11:11:13;5.97;51.52
66740;DHT22;53653;52.188;8.602;2023-02-28T11:13:39;6.52;50.31
66740;DHT22;53653;52.188;8.602;2023-02-28T11:16:06;5.94;52.28
66740;DHT22;53653;52.188;8.602;2023-02-28T11:18:50;6.27;51.02
66740;DHT22;53653;52.188;8.602;2023-02-28T11:21:29;6.41;50.13
66740;DHT22;53653;52.188;8.602;2023-02-28T11:24:02;6.31;49.53
66740;DHT22;53653;52.188;8.602;2023-02-28T11:26:37;5.32;50.22
66740;DHT22;53653;52.188;8.602;2023-02-28T11:29:11;4.85;52.30
66740;DHT22;53653;52.188;8.602;2023-02-28T11:31:39;4.79;53.10
66740;DHT22;53653;52.188;8.602;2023-02-28T11:34:24;4.67;53.53
66740;DHT22;53653;52.188;8.602;2023-02-28T11:36:51;5.32;51.16
66740;DHT22;53653;52.188;8.602;2023-02-28T11:39:19;5.31;50.61
66740;DHT22;53653;52.188;8.602;2023-02-28T11:44:22;5.74;48.64
66740;DHT22;53653;52.188;8.602;2023-02-28T11:46:56;5.41;49.72
66740;DHT22;53653;52.188;8.602;2023-02-28T11:53:05;4.91;52.09
66740;DHT22;53653;52.188;8.602;2023-02-28T11:55:56;5.17;52.59
66740;DHT22;53653;52.188;8.602;2023-02-28T12:06:33;8.71;44.00
66740;DHT22;53653;52.188;8.602;2023-02-28T12:21:18;7.13;47.03
66740;DHT22;53653;52.188;8.602;2023-02-28T12:28:56;6.87;48.44
66740;DHT22;53653;52.188;8.602;2023-02-28T12:31:27;6.75;49.00
66740;DHT22;53653;52.188;8.602;2023-02-28T12:34:00;6.92;46.72
66740;DHT22;53653;52.188;8.602;2023-02-28T12:36:26;6.64;48.58
66740;DHT22;53653;52.188;8.602;2023-02-28T12:44:03;6.89;46.66
66740;DHT22;53653;52.188;8.602;2023-02-28T12:46:33;6.58;48.22
66740;DHT22;53653;52.188;8.602;2023-02-28T12:49:48;6.37;48.57
66740;DHT22;53653;52.188;8.602;2023-02-28T12:51:56;6.42;48.45
66740;DHT22;53653;52.188;8.602;2023-02-28T12:57:13;6.42;49.28
66740;DHT22;53653;52.188;8.602;2023-02-28T12:59:49;6.28;48.71
66740;DHT22;53653;52.188;8.602;2023-02-28T13:10:24;6.28;46.35
66740;DHT22;53653;52.188;8.602;2023-02-28T13:12:53;5.91;48.04
66740;DHT22;53653;52.188;8.602;2023-02-28T13:15:27;6.11;47.47
66740;DHT22;53653;52.188;8.602;2023-02-28T13:17:59;6.18;48.33
66740;DHT22;53653;52.188;8.602;2023-02-28T13:20:25;6.06;48.62
66740;DHT22;53653;52.188;8.602;2023-02-28T13:22:53;6.16;47.74
66740;DHT22;53653;52.188;8.602;2023-02-28T13:27:50;6.06;47.12
66740;DHT22;53653;52.188;8.602;2023-02-28T13:33:31;6.39;48.50
66740;DHT22;53653;52.188;8.602;2023-02-28T13:38:54;6.49;48.41
66740;DHT22;53653;52.188;8.602;2023-02-28T13:44:19;6.52;49.72
66740;DHT22;53653;52.188;8.602;2023-02-28T13:52:17;6.06;50.10
66740;DHT22;53653;52.188;8.602;2023-02-28T13:54:59;5.89;51.58
66740;DHT22;53653;52.188;8.602;2023-02-28T13:58:07;6.01;52.06
66740;DHT22;53653;52.188;8.602;2023-02-28T14:06:25;6.14;51.02
66740;DHT22;53653;52.188;8.602;2023-02-28T14:11:34;6.21;49.91
66740;DHT22;53653;52.188;8.602;2023-02-28T14:14:01;6.11;50.28
66740;DHT22;53653;52.188;8.602;2023-02-28T14:16:37;6.07;49.34
66740;DHT22;53653;52.188;8.602;2023-02-28T14:19:24;5.87;49.39
66740;DHT22;53653;52.188;8.602;2023-02-28T14:22:12;6.27;49.03
66740;DHT22;53653;52.188;8.602;2023-02-28T14:30:26;6.30;48.64
66740;DHT22;53653;52.188;8.602;2023-02-28T14:36:18;6.22;47.78
66740;DHT22;53653;52.188;8.602;2023-02-28T14:38:47;6.34;48.21
66740;DHT22;53653;52.188;8.602;2023-02-28T14:41:21;6.09;49.33
66740;DHT22;53653;52.188;8.602;2023-02-28T14:43:49;5.93;50.13
66740;DHT22;53653;52.188;8.602;2023-02-28T14:46:15;5.90;50.10
66740;DHT22;53653;52.188;8.602;2023-02-28T14:48:45;5.85;50.32
66740;DHT22;53653;52.188;8.602;2023-02-28T14:51:12;5.81;49.98
66740;DHT22;53653;52.188;8.602;2023-02-28T14:53:43;5.76;50.52
66740;DHT22;53653;52.188;8.602;2023-02-28T14:56:20;5.81;51.06
66740;DHT22;53653;52.188;8.602;2023-02-28T14:58:52;5.66;50.46
66740;DHT22;53653;52.188;8.602;2023-02-28T15:01:21;5.76;50.88
66740;DHT22;53653;52.188;8.602;2023-02-28T15:03:48;5.63;51.87
66740;DHT22;53653;52.188;8.602;2023-02-28T15:06:21;5.79;51.57
66740;DHT22;53653;52.188;8.602;2023-02-28T15:09:06;5.66;50.79
66740;DHT22;53653;52.188;8.602;2023-02-28T15:11:33;5.79;50.42
66740;DHT22;53653;52.188;8.602;2023-02-28T15:13:58;5.70;51.76
66740;DHT22;53653;52.188;8.602;2023-02-28T15:16:30;5.58;51.60
66740;DHT22;53653;52.188;8.602;2023-02-28T15:19:02;5.53;51.62
66740;DHT22;53653;52.188;8.602;2023-02-28T15:21:33;5.59;52.51
66740;DHT22;53653;52.188;8.602;2023-02-28T15:26:55;5.35;52.43
66740;DHT22;53653;52.188;8.602;2023-02-28T15:29:24;5.34;52.75
66740;DHT22;53653;52.188;8.602;2023-02-28T15:31:56;5.55;52.96
66740;DHT22;53653;52.188;8.602;2023-02-28T15:34:36;5.51;53.15
66740;DHT22;53653;52.188;8.602;2023-02-28T15:37:28;5.53;53.12
66740;DHT22;53653;52.188;8.602;2023-02-28T15:39:54;5.41;52.76
66740;DHT22;53653;52.188;8.602;2023-02-28T15:42:22;5.39;52.43
66740;DHT22;53653;52.188;8.602;2023-02-28T15:44:48;5.34;52.39
66740;DHT22;53653;52.188;8.602;2023-02-28T15:47:24;5.24;53.29
66740;DHT22;53653;52.188;8.602;2023-02-28T15:49:53;5.31;53.25
66740;DHT22;53653;52.188;8.602;2023-02-28T15:52:28;5.18;53.32
66740;DHT22;53653;52.188;8.602;2023-02-28T15:54:57;5.21;53.49
66740;DHT22;53653;52.188;8.602;2023-02-28T15:57:28;5.20;53.35
66740;DHT22;53653;52.188;8.602;2023-02-28T16:00:00;5.05;53.42
66740;DHT22;53653;52.188;8.602;2023-02-28T16:02:37;5.08;53.43
66740;DHT22;53653;52.188;8.602;2023-02-28T16:07:37;5.04;53.90
66740;DHT22;53653;52.188;8.602;2023-02-28T16:10:04;5.05;54.13
66740;DHT22;53653;52.188;8.602;2023-02-28T16:12:32;4.95;53.87
66740;DHT22;53653;52.188;8.602;2023-02-28T16:15:00;4.85;54.39
66740;DHT22;53653;52.188;8.602;2023-02-28T16:17:34;4.87;54.56
66740;DHT22;53653;52.188;8.602;2023-02-28T16:19:59;5.11;53.88
66740;DHT22;53653;52.188;8.602;2023-02-28T16:22:25;5.41;53.64
66740;DHT22;53653;52.188;8.602;2023-02-28T16:24:51;5.74;52.88
66740;DHT22;53653;52.188;8.602;2023-02-28T16:27:21;5.94;52.30
66740;DHT22;53653;52.188;8.602;2023-02-28T16:29:50;6.14;52.17
66740;DHT22;53653;52.188;8.602;2023-02-28T16:32:15;6.06;51.73
66740;DHT22;53653;52.188;8.602;2023-02-28T16:34:43;5.79;52.92
66740;DHT22;53653;52.188;8.602;2023-02-28T16:37:17;5.17;54.89
66740;DHT22;53653;52.188;8.602;2023-02-28T16:39:43;4.80;56.34
66740;DHT22;53653;52.188;8.602;2023-02-28T16:42:21;4.50;57.17
66740;DHT22;53653;52.188;8.602;2023-02-28T16:44:48;4.53;57.24
66740;DHT22;53653;52.188;8.602;2023-02-28T16:47:14;4.35;57.60
66740;DHT22;53653;52.188;8.602;2023-02-28T16:49:39;4.28;57.97
66740;DHT22;53653;52.188;8.602;2023-02-28T16:52:07;4.15;58.54
66740;DHT22;53653;52.188;8.602;2023-02-28T16:54:33;4.11;58.80
66740;DHT22;53653;52.188;8.602;2023-02-28T16:56:59;4.06;59.13
66740;DHT22;53653;52.188;8.602;2023-02-28T16:59:26;3.98;59.82
66740;DHT22;53653;52.188;8.602;2023-02-28T17:01:51;3.91;60.00
66740;DHT22;53653;52.188;8.602;2023-02-28T17:04:17;3.85;60.52
66740;DHT22;53653;52.188;8.602;2023-02-28T17:06:43;3.81;60.90
66740;DHT22;53653;52.188;8.602;2023-02-28T17:09:16;3.84;60.57
66740;DHT22;53653;52.188;8.602;2023-02-28T17:11:42;3.77;60.71
66740;DHT22;53653;52.188;8.602;2023-02-28T17:14:08;3.67;61.15
66740;DHT22;53653;52.188;8.602;2023-02-28T17:16:35;3.69;61.15
66740;DHT22;53653;52.188;8.602;2023-02-28T17:19:04;3.64;61.50
66740;DHT22;53653;52.188;8.602;2023-02-28T17:21:31;3.56;61.74
66740;DHT22;53653;52.188;8.602;2023-02-28T17:23:57;3.47;62.08
66740;DHT22;53653;52.188;8.602;2023-02-28T17:26:23;3.44;62.27
66740;DHT22;53653;52.188;8.602;2023-02-28T17:28:53;3.40;62.29
66740;DHT22;53653;52.188;8.602;2023-02-28T17:31:22;3.33;62.75
66740;DHT22;53653;52.188;8.602;2023-02-28T17:33:47;3.29;62.75
66740;DHT22;53653;52.188;8.602;2023-02-28T17:36:21;3.29;62.87
66740;DHT22;53653;52.188;8.602;2023-02-28T17:38:48;3.23;63.10
66740;DHT22;53653;52.188;8.602;2023-02-28T17:41:13;3.19;63.35
66740;DHT22;53653;52.188;8.602;2023-02-28T17:43:39;3.16;63.37
66740;DHT22;53653;52.188;8.602;2023-02-28T17:46:06;3.13;63.39
66740;DHT22;53653;52.188;8.602;2023-02-28T17:48:34;3.06;63.48
66740;DHT22;53653;52.188;8.602;2023-02-28T17:51:01;2.98;63.71
66740;DHT22;53653;52.188;8.602;2023-02-28T17:53:26;2.99;64.23
66740;DHT22;53653;52.188;8.602;2023-02-28T17:55:52;2.92;64.10
66740;DHT22;53653;52.188;8.602;2023-02-28T17:58:18;2.91;64.27
66740;DHT22;53653;52.188;8.602;2023-02-28T18:00:44;2.84;64.46
66740;DHT22;53653;52.188;8.602;2023-02-28T18:03:10;2.80;64.74
66740;DHT22;53653;52.188;8.602;2023-02-28T18:05:36;2.80;64.97
66740;DHT22;53653;52.188;8.602;2023-02-28T18:08:02;2.77;64.89
66740;DHT22;53653;52.188;8.602;2023-02-28T18:10:28;2.78;64.63
66740;DHT22;53653;52.188;8.602;2023-02-28T18:12:53;2.78;64.57